createdAt,value
2022-08-31T00:02:14.955Z,16.80
2022-08-31T00:05:23.721Z,16.78
2022-08-31T00:08:31.501Z,16.86
2022-08-31T00:11:40.105Z,16.93
2022-08-31T00:14:49.531Z,16.99
2022-08-31T00:17:57.299Z,17.06
2022-08-31T00:21:05.749Z,17.13
2022-08-31T00:24:13.820Z,17.08
2022-08-31T00:27:18.619Z,16.98
2022-08-31T00:30:27.000Z,16.92
2022-08-31T00:33:35.053Z,16.85
2022-08-31T00:36:43.125Z,16.70
2022-08-31T00:39:51.281Z,16.60
2022-08-31T00:42:59.802Z,16.53
2022-08-31T00:46:07.961Z,16.53
2022-08-31T00:49:16.434Z,16.55
2022-08-31T00:52:24.699Z,16.58
2022-08-31T00:55:32.599Z,16.48
2022-08-31T00:58:40.899Z,16.38
2022-08-31T01:01:49.712Z,16.37
2022-08-31T01:04:57.421Z,16.30
2022-08-31T01:08:06.150Z,16.20
2022-08-31T01:11:14.225Z,16.06
2022-08-31T01:14:22.439Z,15.96
2022-08-31T01:17:30.684Z,15.92
2022-08-31T01:20:38.631Z,15.99
2022-08-31T01:23:42.469Z,15.99
2022-08-31T01:26:55.623Z,15.94
2022-08-31T01:29:52.898Z,15.86
2022-08-31T01:33:01.492Z,15.85
2022-08-31T01:36:13.142Z,15.78
2022-08-31T01:39:12.955Z,15.74
2022-08-31T01:42:21.534Z,15.67
2022-08-31T01:45:29.497Z,15.60
2022-08-31T01:48:41.554Z,15.60
2022-08-31T01:51:39.965Z,15.60
2022-08-31T01:54:48.138Z,15.61
2022-08-31T01:57:56.148Z,15.56
2022-08-31T02:01:03.799Z,15.60
2022-08-31T02:04:08.511Z,15.60
2022-08-31T02:07:16.088Z,15.56
2022-08-31T02:10:23.731Z,15.56
2022-08-31T02:13:31.290Z,15.57
2022-08-31T02:16:38.526Z,15.49
2022-08-31T02:19:46.564Z,15.45
2022-08-31T02:22:54.355Z,15.42
2022-08-31T02:26:01.485Z,15.41
2022-08-31T02:29:09.487Z,15.41
2022-08-31T02:32:20.051Z,15.48
2022-08-31T02:35:17.458Z,15.46
2022-08-31T02:38:25.570Z,15.41
2022-08-31T02:41:34.311Z,15.45
2022-08-31T02:44:42.162Z,15.41
2022-08-31T02:47:50.232Z,15.36
2022-08-31T02:50:57.480Z,15.28
2022-08-31T02:54:05.171Z,15.30
2022-08-31T02:57:12.944Z,15.36
2022-08-31T03:00:20.614Z,15.42
2022-08-31T03:03:28.735Z,15.41
2022-08-31T03:06:35.946Z,15.35
2022-08-31T03:09:44.067Z,15.35
2022-08-31T03:12:52.230Z,15.31
2022-08-31T03:15:59.933Z,15.38
2022-08-31T03:19:07.912Z,15.43
2022-08-31T03:22:15.598Z,15.49
2022-08-31T03:25:25.003Z,15.52
2022-08-31T03:28:32.692Z,15.51
2022-08-31T03:31:40.282Z,15.35
2022-08-31T03:34:48.713Z,15.21
2022-08-31T03:37:55.955Z,15.21
2022-08-31T03:41:03.956Z,15.23
2022-08-31T03:44:12.106Z,15.15
2022-08-31T03:47:19.384Z,15.13
2022-08-31T03:50:27.079Z,15.13
2022-08-31T03:53:35.059Z,15.17
2022-08-31T03:56:42.261Z,15.11
2022-08-31T03:59:50.333Z,15.08
2022-08-31T04:02:57.926Z,15.11
2022-08-31T04:06:05.483Z,15.06
2022-08-31T04:09:13.652Z,15.01
2022-08-31T04:12:20.785Z,14.88
2022-08-31T04:15:29.327Z,14.81
2022-08-31T04:18:37.116Z,14.81
2022-08-31T04:21:44.952Z,14.78
2022-08-31T04:24:52.582Z,14.72
2022-08-31T04:27:59.919Z,14.71
2022-08-31T04:31:07.198Z,14.69
2022-08-31T04:34:14.881Z,14.67
2022-08-31T04:37:22.462Z,14.65
2022-08-31T04:40:30.179Z,14.67
2022-08-31T04:43:39.283Z,14.67
2022-08-31T04:46:47.271Z,14.68
2022-08-31T04:49:54.825Z,14.69
2022-08-31T04:53:03.665Z,14.62
2022-08-31T04:56:11.967Z,14.62
2022-08-31T04:59:19.150Z,14.69
2022-08-31T05:02:27.026Z,14.81
2022-08-31T05:05:34.989Z,14.88
2022-08-31T05:08:42.200Z,14.98
2022-08-31T05:11:50.191Z,15.02
2022-08-31T05:14:58.249Z,14.99
2022-08-31T05:18:05.411Z,15.03
2022-08-31T05:21:13.372Z,15.05
2022-08-31T05:24:20.494Z,15.02
2022-08-31T05:27:28.365Z,14.99
2022-08-31T05:30:36.156Z,14.94
2022-08-31T05:33:43.336Z,14.95
2022-08-31T05:36:51.409Z,14.98
2022-08-31T05:39:59.475Z,14.88
2022-08-31T05:43:06.569Z,14.88
2022-08-31T05:46:14.407Z,14.93
2022-08-31T05:49:22.372Z,14.93
2022-08-31T05:52:24.884Z,14.94
2022-08-31T05:55:33.362Z,14.98
2022-08-31T05:58:40.933Z,15.08
2022-08-31T06:01:51.908Z,15.13
2022-08-31T06:04:59.890Z,15.27
2022-08-31T06:08:09.838Z,15.39
2022-08-31T06:11:08.734Z,15.46
2022-08-31T06:14:16.686Z,15.49
2022-08-31T06:17:24.356Z,15.54
2022-08-31T06:20:32.150Z,15.68
2022-08-31T06:23:39.855Z,15.78
2022-08-31T06:26:47.640Z,15.81
2022-08-31T06:29:55.372Z,15.88
2022-08-31T06:33:02.983Z,15.89
2022-08-31T06:36:10.633Z,16.00
2022-08-31T06:39:19.614Z,16.20
2022-08-31T06:42:27.207Z,16.40
2022-08-31T06:45:34.917Z,16.35
2022-08-31T06:48:43.007Z,16.23
2022-08-31T06:51:50.738Z,16.23
2022-08-31T06:54:58.390Z,16.35
2022-08-31T06:58:05.670Z,16.59
2022-08-31T07:01:13.626Z,16.73
2022-08-31T07:04:23.521Z,16.92
2022-08-31T07:07:31.100Z,17.11
2022-08-31T07:10:39.271Z,17.25
2022-08-31T07:13:46.546Z,17.26
2022-08-31T07:16:54.597Z,17.28
2022-08-31T07:20:02.906Z,17.30
2022-08-31T07:23:10.137Z,17.23
2022-08-31T07:26:18.358Z,17.23
2022-08-31T07:29:26.381Z,17.36
2022-08-31T07:32:33.650Z,17.46
2022-08-31T07:35:41.742Z,17.46
2022-08-31T07:38:49.042Z,17.50
2022-08-31T07:41:57.099Z,17.53
2022-08-31T07:45:05.266Z,17.66
2022-08-31T07:48:12.624Z,17.69
2022-08-31T07:51:20.487Z,17.73
2022-08-31T07:54:28.193Z,17.91
2022-08-31T07:57:35.838Z,18.03
2022-08-31T08:00:43.498Z,18.02
2022-08-31T08:03:51.160Z,18.00
2022-08-31T08:06:58.851Z,18.04
2022-08-31T08:10:07.498Z,18.18
2022-08-31T08:13:15.512Z,18.25
2022-08-31T08:16:23.230Z,18.25
2022-08-31T08:19:30.845Z,18.39
2022-08-31T08:22:51.780Z,18.54
2022-08-31T08:25:43.896Z,18.77
2022-08-31T08:28:51.537Z,18.86
2022-08-31T08:31:59.981Z,18.83
2022-08-31T08:35:07.246Z,18.99
2022-08-31T08:38:15.201Z,19.11
2022-08-31T08:41:22.804Z,19.15
2022-08-31T08:44:30.473Z,19.47
2022-08-31T08:47:39.301Z,19.68
2022-08-31T08:50:47.305Z,19.79
2022-08-31T08:53:54.998Z,19.72
2022-08-31T08:57:02.882Z,19.68
2022-08-31T09:00:10.580Z,19.60
2022-08-31T09:03:19.512Z,19.58
2022-08-31T09:06:32.200Z,19.76
2022-08-31T09:09:34.032Z,19.98
2022-08-31T09:12:41.912Z,20.05
2022-08-31T09:15:49.768Z,19.97
2022-08-31T09:18:58.176Z,20.02
2022-08-31T09:22:06.187Z,20.23
2022-08-31T09:25:14.078Z,20.33
2022-08-31T09:28:21.916Z,20.42
2022-08-31T09:31:30.405Z,20.39
2022-08-31T09:34:38.370Z,20.31
2022-08-31T09:37:46.555Z,20.30
2022-08-31T09:40:54.337Z,20.21
2022-08-31T09:44:03.156Z,20.16
2022-08-31T09:47:11.354Z,20.38
2022-08-31T09:50:18.716Z,20.41
2022-08-31T09:53:27.040Z,20.43
2022-08-31T09:56:34.688Z,20.38
2022-08-31T09:59:42.722Z,20.43
2022-08-31T10:02:51.010Z,20.56
2022-08-31T10:05:58.431Z,20.64
2022-08-31T10:09:06.902Z,20.81
2022-08-31T10:12:14.834Z,20.91
2022-08-31T10:15:22.808Z,20.95
2022-08-31T10:18:30.785Z,20.93
2022-08-31T10:21:39.393Z,21.05
2022-08-31T10:24:46.937Z,21.29
2022-08-31T10:27:55.239Z,21.36
2022-08-31T10:31:03.264Z,21.46
2022-08-31T10:34:11.071Z,21.42
2022-08-31T10:37:19.442Z,21.45
2022-08-31T10:40:27.038Z,21.61
2022-08-31T10:43:35.764Z,21.67
2022-08-31T10:46:44.112Z,21.61
2022-08-31T10:49:51.443Z,21.59
2022-08-31T10:53:02.615Z,21.71
2022-08-31T10:55:59.494Z,21.74
2022-08-31T10:59:09.679Z,21.63
2022-08-31T11:02:17.881Z,21.61
2022-08-31T11:05:25.412Z,21.60
2022-08-31T11:08:33.991Z,21.92
2022-08-31T11:11:43.559Z,22.09
2022-08-31T11:14:51.653Z,22.04
2022-08-31T11:17:59.843Z,21.98
2022-08-31T11:21:07.356Z,21.79
2022-08-31T11:24:16.078Z,22.02
2022-08-31T11:27:24.038Z,22.37
2022-08-31T11:30:31.718Z,22.52
2022-08-31T11:33:51.023Z,22.71
2022-08-31T11:36:44.944Z,22.84
2022-08-31T11:39:52.705Z,22.86
2022-08-31T11:43:00.424Z,22.74
2022-08-31T11:46:08.169Z,22.34
2022-08-31T11:49:15.928Z,22.27
2022-08-31T11:52:24.030Z,22.14
2022-08-31T11:55:31.560Z,22.44
2022-08-31T11:58:39.373Z,22.69
2022-08-31T12:01:47.402Z,22.72
2022-08-31T12:04:54.664Z,22.65
2022-08-31T12:08:02.584Z,22.78
2022-08-31T12:11:09.824Z,22.77
2022-08-31T12:14:18.148Z,22.92
2022-08-31T12:17:26.240Z,23.75
2022-08-31T12:20:33.471Z,24.22
2022-08-31T12:23:41.581Z,24.67
2022-08-31T12:26:49.282Z,24.53
2022-08-31T12:29:57.183Z,24.10
2022-08-31T12:33:05.582Z,23.71
2022-08-31T12:36:12.832Z,23.89
2022-08-31T12:39:20.907Z,23.53
2022-08-31T12:42:28.648Z,23.47
2022-08-31T12:45:36.419Z,23.60
2022-08-31T12:48:44.499Z,23.45
2022-08-31T12:51:51.862Z,23.49
2022-08-31T12:55:01.183Z,23.75
2022-08-31T12:58:08.853Z,23.71
2022-08-31T13:01:16.708Z,23.86
2022-08-31T13:04:24.876Z,24.27
2022-08-31T13:07:32.627Z,24.60
2022-08-31T13:10:40.318Z,24.50
2022-08-31T13:13:48.100Z,24.38
2022-08-31T13:16:55.755Z,24.52
2022-08-31T13:20:03.648Z,24.76
2022-08-31T13:23:11.685Z,25.24
2022-08-31T13:26:19.035Z,25.72
2022-08-31T13:29:27.186Z,25.44
2022-08-31T13:32:35.154Z,25.34
2022-08-31T13:35:42.416Z,25.27
2022-08-31T13:38:50.790Z,24.82
2022-08-31T13:41:58.392Z,24.83
2022-08-31T13:45:06.044Z,24.83
2022-08-31T13:48:14.179Z,25.09
2022-08-31T13:51:21.564Z,25.44
2022-08-31T13:54:29.665Z,25.72
2022-08-31T13:57:37.324Z,25.53
2022-08-31T14:00:44.989Z,25.57
2022-08-31T14:03:52.569Z,25.53
2022-08-31T14:07:00.181Z,25.02
2022-08-31T14:10:08.412Z,24.38
2022-08-31T14:13:16.060Z,24.38
2022-08-31T14:16:23.717Z,24.12
2022-08-31T14:19:32.045Z,23.98
2022-08-31T14:22:39.796Z,24.41
2022-08-31T14:25:40.676Z,24.27
2022-08-31T14:28:48.319Z,24.39
2022-08-31T14:31:56.030Z,24.83
2022-08-31T14:35:03.682Z,24.85
2022-08-31T14:38:12.085Z,24.82
2022-08-31T14:41:19.526Z,24.92
2022-08-31T14:44:27.215Z,24.90
2022-08-31T14:47:34.998Z,24.88
2022-08-31T14:50:42.728Z,24.83
2022-08-31T14:53:50.860Z,24.75
2022-08-31T14:56:58.189Z,24.75
2022-08-31T15:00:06.250Z,24.53
2022-08-31T15:03:13.982Z,24.54
2022-08-31T15:06:21.725Z,24.88
2022-08-31T15:09:30.015Z,24.68
2022-08-31T15:12:37.373Z,24.27
2022-08-31T15:15:47.660Z,24.52
2022-08-31T15:18:55.638Z,24.68
2022-08-31T15:22:03.467Z,24.54
2022-08-31T15:25:10.953Z,24.53
2022-08-31T15:28:19.509Z,24.38
2022-08-31T15:31:26.798Z,24.42
2022-08-31T15:34:34.823Z,24.22
2022-08-31T15:37:42.041Z,24.12
2022-08-31T15:40:50.157Z,24.20
2022-08-31T15:43:58.329Z,24.29
2022-08-31T15:47:05.547Z,24.41
2022-08-31T15:50:13.562Z,24.57
2022-08-31T15:53:21.182Z,24.50
2022-08-31T15:56:28.878Z,24.16
2022-08-31T15:59:36.895Z,23.87
2022-08-31T16:02:44.128Z,24.01
2022-08-31T16:05:52.305Z,23.89
2022-08-31T16:09:00.200Z,24.05
2022-08-31T16:12:08.000Z,23.92
2022-08-31T16:15:16.460Z,24.01
2022-08-31T16:18:24.492Z,23.97
2022-08-31T16:21:33.141Z,23.79
2022-08-31T16:24:40.703Z,23.62
2022-08-31T16:27:48.885Z,23.57
2022-08-31T16:30:56.936Z,23.58
2022-08-31T16:34:04.644Z,23.58
2022-08-31T16:37:12.889Z,23.46
2022-08-31T16:40:20.790Z,23.26
2022-08-31T16:43:28.081Z,23.15
2022-08-31T16:46:41.082Z,23.05
2022-08-31T16:49:38.701Z,23.02
2022-08-31T16:52:46.026Z,22.84
2022-08-31T16:55:54.575Z,22.84
2022-08-31T16:59:02.326Z,22.84
2022-08-31T17:02:09.928Z,22.77
2022-08-31T17:05:18.160Z,22.69
2022-08-31T17:08:25.705Z,22.57
2022-08-31T17:11:33.792Z,22.54
2022-08-31T17:14:41.453Z,22.64
2022-08-31T17:17:49.575Z,22.64
2022-08-31T17:20:57.250Z,22.54
2022-08-31T17:24:05.707Z,22.39
2022-08-31T17:27:06.996Z,22.25
2022-08-31T17:30:14.238Z,22.16
2022-08-31T17:33:22.030Z,22.07
2022-08-31T17:36:32.283Z,21.83
2022-08-31T17:39:30.733Z,21.74
2022-08-31T17:42:38.752Z,21.63
2022-08-31T17:45:46.406Z,21.57
2022-08-31T17:48:53.617Z,21.45
2022-08-31T17:52:01.696Z,21.30
2022-08-31T17:55:09.324Z,21.16
2022-08-31T17:58:16.577Z,20.95
2022-08-31T18:01:24.657Z,20.74
2022-08-31T18:04:32.469Z,20.56
2022-08-31T18:07:40.113Z,20.41
2022-08-31T18:10:48.324Z,20.23
2022-08-31T18:13:56.125Z,20.02
2022-08-31T18:17:03.865Z,19.83
2022-08-31T18:20:11.712Z,19.65
2022-08-31T18:23:19.070Z,19.60
2022-08-31T18:26:27.129Z,19.54
2022-08-31T18:29:35.013Z,19.40
2022-08-31T18:32:47.384Z,19.25
2022-08-31T18:35:44.331Z,19.13
2022-08-31T18:38:52.283Z,18.91
2022-08-31T18:42:00.063Z,18.79
2022-08-31T18:45:08.156Z,18.67
2022-08-31T18:48:25.564Z,18.59
2022-08-31T18:51:22.656Z,18.42
2022-08-31T18:54:30.815Z,18.29
2022-08-31T18:57:48.874Z,18.18
2022-08-31T19:00:44.227Z,18.07
2022-08-31T19:03:52.115Z,17.97
2022-08-31T19:07:00.183Z,17.91
2022-08-31T19:10:12.136Z,17.85
2022-08-31T19:13:10.227Z,17.79
2022-08-31T19:16:18.607Z,17.66
2022-08-31T19:19:26.496Z,17.57
2022-08-31T19:22:34.567Z,17.47
2022-08-31T19:25:41.977Z,17.43
2022-08-31T19:28:50.310Z,17.43
2022-08-31T19:31:58.487Z,17.38
2022-08-31T19:35:06.101Z,17.33
2022-08-31T19:38:14.533Z,17.28
2022-08-31T19:41:22.667Z,17.26
2022-08-31T19:44:54.503Z,17.18
2022-08-31T19:47:36.207Z,17.10
2022-08-31T19:50:44.443Z,16.96
2022-08-31T19:53:52.371Z,16.85
2022-08-31T19:57:00.509Z,16.71
2022-08-31T20:00:08.591Z,16.62
2022-08-31T20:03:16.552Z,16.50
2022-08-31T20:06:24.717Z,16.42
2022-08-31T20:09:32.261Z,16.40
2022-08-31T20:12:40.190Z,16.34
2022-08-31T20:15:47.841Z,16.23
2022-08-31T20:18:56.237Z,16.22
2022-08-31T20:22:04.187Z,16.22
2022-08-31T20:25:18.762Z,16.12
2022-08-31T20:28:16.580Z,16.11
2022-08-31T20:31:24.203Z,16.07
2022-08-31T20:34:32.530Z,16.03
2022-08-31T20:37:40.431Z,16.03
2022-08-31T20:40:47.936Z,15.97
2022-08-31T20:43:56.224Z,15.94
2022-08-31T20:47:04.645Z,15.86
2022-08-31T20:50:12.135Z,15.79
2022-08-31T20:53:42.285Z,15.75
2022-08-31T20:56:25.571Z,15.75
2022-08-31T20:59:33.509Z,15.70
2022-08-31T21:02:41.808Z,15.75
2022-08-31T21:05:49.367Z,15.76
2022-08-31T21:08:57.242Z,15.74
2022-08-31T21:12:05.013Z,15.76
2022-08-31T21:15:12.837Z,15.76
2022-08-31T21:18:21.048Z,15.76
2022-08-31T21:21:28.816Z,15.72
2022-08-31T21:24:36.748Z,15.67
2022-08-31T21:27:44.619Z,15.66
2022-08-31T21:30:52.537Z,15.68
2022-08-31T21:34:00.529Z,15.63
2022-08-31T21:37:08.858Z,15.59
2022-08-31T21:40:16.650Z,15.59
2022-08-31T21:43:24.511Z,15.49
2022-08-31T21:46:32.611Z,15.43
2022-08-31T21:49:40.387Z,15.38
2022-08-31T21:52:48.365Z,15.35
2022-08-31T21:55:56.137Z,15.39
2022-08-31T21:59:03.930Z,15.42
2022-08-31T22:02:11.848Z,15.39
2022-08-31T22:05:19.708Z,15.41
2022-08-31T22:08:27.996Z,15.43
2022-08-31T22:11:35.497Z,15.41
2022-08-31T22:14:43.775Z,15.42
2022-08-31T22:18:11.472Z,15.39
2022-08-31T22:20:56.580Z,15.36
2022-08-31T22:24:04.649Z,15.38
2022-08-31T22:27:13.040Z,15.35
2022-08-31T22:30:20.414Z,15.35
2022-08-31T22:33:28.548Z,15.31
2022-08-31T22:36:36.394Z,15.27
2022-08-31T22:39:44.730Z,15.23
2022-08-31T22:42:52.935Z,15.19
2022-08-31T22:46:00.746Z,15.09
2022-08-31T22:49:08.684Z,15.03
2022-08-31T22:52:17.505Z,14.99
2022-08-31T22:55:25.261Z,14.87
2022-08-31T22:58:33.022Z,14.69
2022-08-31T23:01:40.955Z,14.44
2022-08-31T23:04:48.834Z,14.28
2022-08-31T23:07:57.306Z,14.14
2022-08-31T23:11:05.150Z,14.13
2022-08-31T23:14:12.811Z,13.98
2022-08-31T23:17:20.407Z,13.91
2022-08-31T23:20:28.156Z,13.91
2022-08-31T23:23:36.021Z,14.04
2022-08-31T23:26:43.899Z,13.99
2022-08-31T23:29:52.242Z,13.89
2022-08-31T23:33:00.192Z,13.81
2022-08-31T23:36:07.632Z,13.80
2022-08-31T23:39:16.095Z,13.80
2022-08-31T23:42:24.030Z,13.81
2022-08-31T23:45:31.869Z,13.91
2022-08-31T23:48:39.984Z,14.10
2022-08-31T23:51:47.406Z,14.28
2022-08-31T23:54:55.780Z,14.31
2022-08-31T23:58:03.972Z,14.35
